Terminal Aerodrome Forecast
Issued by NWS Blacksburg, VA

Home | Current Version | Previous Version | Text Only | Print | Product List | Glossary On
Versions: 1 2 3 4 5 6 7 8 9 10 11 12 13 14 15 16 17 18 19 20 21 22 23 24 25 26 27 28 29
000
FTUS41 KRNK 020339 AAC
TAFDAN
TAF AMD
KDAN 020339Z 0204/0224 22003KT 5SM BR SCT060 SCT100
     FM020900 23003KT 2SM BR SCT040
     FM021200 26004KT P6SM VCSH OVC060
     FM022200 26009KT 6SM -SHRA VCTS OVC050CB=

USA.gov is the U.S. government's official web portal to all federal, state and local government web resources and services.